Terminal Aerodrome Forecast
Issued by NWS Bismarck, ND

Home | Current Version | Previous Version | Graphics & Text | Print | Product List | Glossary On
Versions: 1 2 3 4 5 6 7 8 9 10 11 12 13 14 15 16 17 18 19 20 21 22 23 24 25 26 27
000
FTUS43 KBIS 212328
TAFBIS
TAF
KBIS 212328Z 2200/2224 15006KT P6SM SKC
     FM221700 10008KT P6SM SCT250
     FM222000 11012KT P6SM SCT250
     FM222100 11013G19KT P6SM -SHRA VCTS BKN090CB=

USA.gov is the U.S. government's official web portal to all federal, state and local government web resources and services.